sensor_id;sensor_type;location;lat;lon;timestamp;pressure;altitude;pressure_sealevel;temperature;humidity
41596;BME280;27283;52.504;13.358;2023-04-06T00:01:31;101752.22;;;4.38;62.84
41596;BME280;27283;52.504;13.358;2023-04-06T00:04:04;101741.78;;;4.20;63.37
41596;BME280;27283;52.504;13.358;2023-04-06T00:06:36;101743.94;;;4.28;63.40
41596;BME280;27283;52.504;13.358;2023-04-06T00:09:09;101731.47;;;4.29;63.21
41596;BME280;27283;52.504;13.358;2023-04-06T00:11:44;101741.19;;;4.30;62.99
41596;BME280;27283;52.504;13.358;2023-04-06T00:14:16;101732.00;;;4.21;63.31
41596;BME280;27283;52.504;13.358;2023-04-06T00:16:49;101730.94;;;4.23;63.30
41596;BME280;27283;52.504;13.358;2023-04-06T00:19:21;101727.53;;;4.21;63.43
41596;BME280;27283;52.504;13.358;2023-04-06T00:21:54;101725.19;;;4.17;63.70
41596;BME280;27283;52.504;13.358;2023-04-06T00:24:26;101726.13;;;4.16;63.29
41596;BME280;27283;52.504;13.358;2023-04-06T00:27:01;101724.16;;;4.05;63.78
41596;BME280;27283;52.504;13.358;2023-04-06T00:29:36;101723.69;;;3.98;64.02
41596;BME280;27283;52.504;13.358;2023-04-06T00:32:09;101727.31;;;3.97;64.07
41596;BME280;27283;52.504;13.358;2023-04-06T00:34:41;101727.63;;;3.93;64.56
41596;BME280;27283;52.504;13.358;2023-04-06T00:37:14;101722.50;;;3.75;65.90
41596;BME280;27283;52.504;13.358;2023-04-06T00:39:46;101724.03;;;3.79;65.07
41596;BME280;27283;52.504;13.358;2023-04-06T00:42:25;101721.56;;;3.76;66.21
41596;BME280;27283;52.504;13.358;2023-04-06T00:44:59;101718.03;;;3.76;66.06
41596;BME280;27283;52.504;13.358;2023-04-06T00:47:32;101715.28;;;3.77;65.64
41596;BME280;27283;52.504;13.358;2023-04-06T00:50:06;101709.31;;;3.73;65.42
41596;BME280;27283;52.504;13.358;2023-04-06T00:52:39;101713.50;;;3.63;65.96
41596;BME280;27283;52.504;13.358;2023-04-06T00:55:11;101711.53;;;3.67;65.48
41596;BME280;27283;52.504;13.358;2023-04-06T00:57:46;101715.31;;;3.63;65.34
41596;BME280;27283;52.504;13.358;2023-04-06T01:00:18;101713.50;;;3.63;64.76
41596;BME280;27283;52.504;13.358;2023-04-06T01:02:51;101706.94;;;3.69;64.53
41596;BME280;27283;52.504;13.358;2023-04-06T01:05:24;101710.75;;;3.65;64.50
41596;BME280;27283;52.504;13.358;2023-04-06T01:08:00;101721.38;;;3.65;65.66
41596;BME280;27283;52.504;13.358;2023-04-06T01:10:32;101718.91;;;3.62;66.01
41596;BME280;27283;52.504;13.358;2023-04-06T01:13:07;101714.94;;;3.54;65.40
41596;BME280;27283;52.504;13.358;2023-04-06T01:15:40;101712.84;;;3.60;65.10
41596;BME280;27283;52.504;13.358;2023-04-06T01:18:13;101703.81;;;3.62;64.59
41596;BME280;27283;52.504;13.358;2023-04-06T01:20:45;101704.69;;;3.63;64.38
41596;BME280;27283;52.504;13.358;2023-04-06T01:23:20;101708.19;;;3.63;65.11
41596;BME280;27283;52.504;13.358;2023-04-06T01:25:52;101713.00;;;3.71;64.46
41596;BME280;27283;52.504;13.358;2023-04-06T01:28:25;101711.59;;;3.65;64.38
41596;BME280;27283;52.504;13.358;2023-04-06T01:30:56;101705.22;;;3.68;64.90
41596;BME280;27283;52.504;13.358;2023-04-06T01:33:29;101712.16;;;3.70;64.48
41596;BME280;27283;52.504;13.358;2023-04-06T01:36:01;101705.22;;;3.68;64.15
41596;BME280;27283;52.504;13.358;2023-04-06T01:38:37;101706.94;;;3.69;64.24
41596;BME280;27283;52.504;13.358;2023-04-06T01:41:10;101709.69;;;3.67;64.13
41596;BME280;27283;52.504;13.358;2023-04-06T01:43:44;101706.47;;;3.62;64.46
41596;BME280;27283;52.504;13.358;2023-04-06T01:46:17;101710.50;;;3.55;65.13
41596;BME280;27283;52.504;13.358;2023-04-06T01:48:59;101708.47;;;3.59;64.74
41596;BME280;27283;52.504;13.358;2023-04-06T01:51:32;101699.94;;;3.53;65.48
41596;BME280;27283;52.504;13.358;2023-04-06T01:54:07;101705.91;;;3.57;65.08
41596;BME280;27283;52.504;13.358;2023-04-06T01:56:39;101707.16;;;3.51;65.28
41596;BME280;27283;52.504;13.358;2023-04-06T01:59:11;101709.72;;;3.53;65.13
41596;BME280;27283;52.504;13.358;2023-04-06T02:01:44;101703.00;;;3.47;65.18
41596;BME280;27283;52.504;13.358;2023-04-06T02:04:16;101700.59;;;3.43;65.48
41596;BME280;27283;52.504;13.358;2023-04-06T02:06:50;101697.69;;;3.47;65.48
41596;BME280;27283;52.504;13.358;2023-04-06T02:09:25;101706.00;;;3.41;65.43
41596;BME280;27283;52.504;13.358;2023-04-06T02:12:01;101697.94;;;3.43;65.32
41596;BME280;27283;52.504;13.358;2023-04-06T02:14:33;101700.78;;;3.40;65.80
41596;BME280;27283;52.504;13.358;2023-04-06T02:17:06;101701.84;;;3.37;65.66
41596;BME280;27283;52.504;13.358;2023-04-06T02:19:39;101704.03;;;3.45;65.20
41596;BME280;27283;52.504;13.358;2023-04-06T02:22:11;101705.75;;;3.46;65.31
41596;BME280;27283;52.504;13.358;2023-04-06T02:24:46;101697.88;;;3.44;65.17
41596;BME280;27283;52.504;13.358;2023-04-06T02:27:29;101703.09;;;3.46;65.10
41596;BME280;27283;52.504;13.358;2023-04-06T02:30:06;101705.91;;;3.43;65.00
41596;BME280;27283;52.504;13.358;2023-04-06T02:32:39;101702.50;;;3.41;65.23
41596;BME280;27283;52.504;13.358;2023-04-06T02:35:12;101706.19;;;3.38;65.45
41596;BME280;27283;52.504;13.358;2023-04-06T02:37:44;101700.31;;;3.33;65.36
41596;BME280;27283;52.504;13.358;2023-04-06T02:40:20;101705.19;;;3.26;65.69
41596;BME280;27283;52.504;13.358;2023-04-06T02:42:52;101699.66;;;3.15;65.90
41596;BME280;27283;52.504;13.358;2023-04-06T02:45:25;101702.22;;;3.16;65.83
41596;BME280;27283;52.504;13.358;2023-04-06T02:47:57;101702.41;;;3.13;65.94
41596;BME280;27283;52.504;13.358;2023-04-06T02:50:30;101700.03;;;3.09;66.25
41596;BME280;27283;52.504;13.358;2023-04-06T02:53:02;101703.25;;;2.99;66.71
41596;BME280;27283;52.504;13.358;2023-04-06T02:55:38;101700.88;;;2.95;66.69
41596;BME280;27283;52.504;13.358;2023-04-06T02:58:10;101702.94;;;2.90;66.68
41596;BME280;27283;52.504;13.358;2023-04-06T03:00:43;101705.97;;;2.83;67.31
41596;BME280;27283;52.504;13.358;2023-04-06T03:03:15;101710.72;;;2.78;67.25
41596;BME280;27283;52.504;13.358;2023-04-06T03:05:48;101711.56;;;2.79;67.25
41596;BME280;27283;52.504;13.358;2023-04-06T03:08:20;101716.31;;;2.74;67.63
41596;BME280;27283;52.504;13.358;2023-04-06T03:10:56;101714.78;;;2.70;67.62
41596;BME280;27283;52.504;13.358;2023-04-06T03:13:28;101712.31;;;2.66;67.98
41596;BME280;27283;52.504;13.358;2023-04-06T03:16:01;101717.03;;;2.61;68.52
41596;BME280;27283;52.504;13.358;2023-04-06T03:18:33;101711.41;;;2.52;69.24
41596;BME280;27283;52.504;13.358;2023-04-06T03:21:06;101714.31;;;2.47;69.52
41596;BME280;27283;52.504;13.358;2023-04-06T03:23:38;101708.91;;;2.34;70.32
41596;BME280;27283;52.504;13.358;2023-04-06T03:26:14;101719.09;;;2.26;70.58
41596;BME280;27283;52.504;13.358;2023-04-06T03:28:48;101721.34;;;2.18;71.65
41596;BME280;27283;52.504;13.358;2023-04-06T03:31:21;101717.22;;;2.12;71.56
41596;BME280;27283;52.504;13.358;2023-04-06T03:33:54;101724.25;;;2.13;71.93
41596;BME280;27283;52.504;13.358;2023-04-06T03:36:26;101720.81;;;2.11;71.87
41596;BME280;27283;52.504;13.358;2023-04-06T03:38:58;101733.41;;;2.07;72.30
41596;BME280;27283;52.504;13.358;2023-04-06T03:41:34;101729.72;;;2.10;72.33
41596;BME280;27283;52.504;13.358;2023-04-06T03:44:06;101732.63;;;2.05;72.67
41596;BME280;27283;52.504;13.358;2023-04-06T03:46:38;101733.94;;;1.98;72.96
41596;BME280;27283;52.504;13.358;2023-04-06T03:49:10;101737.84;;;1.91;73.20
41596;BME280;27283;52.504;13.358;2023-04-06T03:51:43;101737.94;;;1.89;73.37
41596;BME280;27283;52.504;13.358;2023-04-06T03:54:15;101744.97;;;1.90;73.67
41596;BME280;27283;52.504;13.358;2023-04-06T03:56:50;101740.84;;;1.85;73.59
41596;BME280;27283;52.504;13.358;2023-04-06T03:59:22;101742.66;;;1.84;73.65
41596;BME280;27283;52.504;13.358;2023-04-06T04:01:54;101747.16;;;1.82;73.68
41596;BME280;27283;52.504;13.358;2023-04-06T04:04:26;101746.91;;;1.87;73.82
41596;BME280;27283;52.504;13.358;2023-04-06T04:06:59;101752.13;;;1.88;73.75
41596;BME280;27283;52.504;13.358;2023-04-06T04:09:31;101755.84;;;1.86;73.59
41596;BME280;27283;52.504;13.358;2023-04-06T04:12:06;101755.38;;;1.77;73.93
41596;BME280;27283;52.504;13.358;2023-04-06T04:14:38;101761.28;;;1.67;74.42
41596;BME280;27283;52.504;13.358;2023-04-06T04:17:11;101756.22;;;1.62;74.75
41596;BME280;27283;52.504;13.358;2023-04-06T04:19:43;101758.25;;;1.57;75.27
41596;BME280;27283;52.504;13.358;2023-04-06T04:22:15;101763.38;;;1.60;74.91
41596;BME280;27283;52.504;13.358;2023-04-06T04:24:47;101765.97;;;1.62;74.85
41596;BME280;27283;52.504;13.358;2023-04-06T04:27:22;101753.19;;;1.52;75.42
41596;BME280;27283;52.504;13.358;2023-04-06T04:29:54;101757.31;;;1.58;74.66
41596;BME280;27283;52.504;13.358;2023-04-06T04:32:27;101766.19;;;1.57;74.84
41596;BME280;27283;52.504;13.358;2023-04-06T04:34:59;101757.94;;;1.63;74.35
41596;BME280;27283;52.504;13.358;2023-04-06T04:37:31;101764.69;;;1.69;74.07
41596;BME280;27283;52.504;13.358;2023-04-06T04:40:05;101767.25;;;1.70;73.82
41596;BME280;27283;52.504;13.358;2023-04-06T04:42:40;101762.66;;;1.74;73.93
41596;BME280;27283;52.504;13.358;2023-04-06T04:45:12;101761.03;;;1.71;73.70
41596;BME280;27283;52.504;13.358;2023-04-06T04:47:45;101761.69;;;1.75;73.75
41596;BME280;27283;52.504;13.358;2023-04-06T04:50:17;101762.13;;;1.67;74.74
41596;BME280;27283;52.504;13.358;2023-04-06T04:52:49;101761.34;;;1.65;74.77
41596;BME280;27283;52.504;13.358;2023-04-06T04:55:21;101764.59;;;1.70;74.11
41596;BME280;27283;52.504;13.358;2023-04-06T04:57:56;101767.44;;;1.67;74.60
41596;BME280;27283;52.504;13.358;2023-04-06T05:00:28;101764.44;;;1.73;74.41
41596;BME280;27283;52.504;13.358;2023-04-06T05:03:01;101770.19;;;1.82;74.20
41596;BME280;27283;52.504;13.358;2023-04-06T05:05:33;101771.13;;;1.81;73.99
41596;BME280;27283;52.504;13.358;2023-04-06T05:08:05;101771.56;;;1.89;73.65
41596;BME280;27283;52.504;13.358;2023-04-06T05:10:38;101774.06;;;1.92;73.50
41596;BME280;27283;52.504;13.358;2023-04-06T05:13:13;101772.41;;;1.89;73.84
41596;BME280;27283;52.504;13.358;2023-04-06T05:15:45;101772.84;;;1.98;73.85
41596;BME280;27283;52.504;13.358;2023-04-06T05:18:17;101772.75;;;1.99;74.31
41596;BME280;27283;52.504;13.358;2023-04-06T05:20:50;101769.16;;;2.00;74.05
41596;BME280;27283;52.504;13.358;2023-04-06T05:23:22;101772.00;;;2.13;73.92
41596;BME280;27283;52.504;13.358;2023-04-06T05:25:54;101771.84;;;2.16;74.11
41596;BME280;27283;52.504;13.358;2023-04-06T05:28:29;101777.06;;;2.18;73.94
41596;BME280;27283;52.504;13.358;2023-04-06T05:31:01;101769.84;;;2.36;73.44
41596;BME280;27283;52.504;13.358;2023-04-06T05:33:34;101771.00;;;2.46;72.80
41596;BME280;27283;52.504;13.358;2023-04-06T05:36:07;101774.19;;;2.53;72.72
41596;BME280;27283;52.504;13.358;2023-04-06T05:38:43;101778.97;;;2.62;72.36
41596;BME280;27283;52.504;13.358;2023-04-06T05:41:16;101783.16;;;2.66;72.25
41596;BME280;27283;52.504;13.358;2023-04-06T05:43:52;101788.69;;;2.77;71.39
41596;BME280;27283;52.504;13.358;2023-04-06T05:46:25;101783.19;;;2.80;71.59
41596;BME280;27283;52.504;13.358;2023-04-06T05:48:57;101783.47;;;2.76;71.53
41596;BME280;27283;52.504;13.358;2023-04-06T05:51:32;101787.75;;;2.78;71.83
41596;BME280;27283;52.504;13.358;2023-04-06T05:54:05;101779.50;;;2.83;71.43
41596;BME280;27283;52.504;13.358;2023-04-06T05:56:37;101782.25;;;2.81;72.19
41596;BME280;27283;52.504;13.358;2023-04-06T05:59:13;101781.53;;;2.94;71.01
41596;BME280;27283;52.504;13.358;2023-04-06T06:01:46;101781.34;;;2.97;70.12
41596;BME280;27283;52.504;13.358;2023-04-06T06:04:19;101778.03;;;3.08;69.67
41596;BME280;27283;52.504;13.358;2023-04-06T06:06:51;101787.09;;;3.19;69.14
41596;BME280;27283;52.504;13.358;2023-04-06T06:09:24;101791.19;;;3.40;68.10
41596;BME280;27283;52.504;13.358;2023-04-06T06:11:56;101792.44;;;3.48;68.13
41596;BME280;27283;52.504;13.358;2023-04-06T06:14:32;101788.75;;;3.51;67.44
41596;BME280;27283;52.504;13.358;2023-04-06T06:17:05;101791.56;;;3.62;67.01
41596;BME280;27283;52.504;13.358;2023-04-06T06:19:37;101787.31;;;3.74;66.28
41596;BME280;27283;52.504;13.358;2023-04-06T06:22:10;101790.06;;;3.87;65.84
41596;BME280;27283;52.504;13.358;2023-04-06T06:24:43;101792.03;;;3.98;64.68
41596;BME280;27283;52.504;13.358;2023-04-06T06:27:15;101791.34;;;4.08;64.80
41596;BME280;27283;52.504;13.358;2023-04-06T06:29:51;101792.19;;;4.09;64.31
41596;BME280;27283;52.504;13.358;2023-04-06T06:32:23;101791.44;;;4.21;63.25
41596;BME280;27283;52.504;13.358;2023-04-06T06:34:56;101796.34;;;4.28;63.65
41596;BME280;27283;52.504;13.358;2023-04-06T06:37:29;101783.69;;;4.31;63.67
41596;BME280;27283;52.504;13.358;2023-04-06T06:40:02;101792.28;;;4.49;64.17
41596;BME280;27283;52.504;13.358;2023-04-06T06:42:34;101782.31;;;4.66;63.44
41596;BME280;27283;52.504;13.358;2023-04-06T06:45:10;101783.69;;;4.99;62.21
41596;BME280;27283;52.504;13.358;2023-04-06T06:47:43;101788.06;;;5.77;59.11
41596;BME280;27283;52.504;13.358;2023-04-06T06:50:23;101789.59;;;6.90;55.63
41596;BME280;27283;52.504;13.358;2023-04-06T06:52:55;101792.97;;;8.07;51.34
41596;BME280;27283;52.504;13.358;2023-04-06T06:55:28;101783.88;;;9.07;48.34
41596;BME280;27283;52.504;13.358;2023-04-06T06:58:00;101789.78;;;9.74;45.81
41596;BME280;27283;52.504;13.358;2023-04-06T07:00:36;101796.88;;;10.25;44.32
41596;BME280;27283;52.504;13.358;2023-04-06T07:03:08;101787.47;;;10.70;43.38
41596;BME280;27283;52.504;13.358;2023-04-06T07:05:45;101788.97;;;11.31;41.17
41596;BME280;27283;52.504;13.358;2023-04-06T07:08:23;101790.06;;;11.48;40.90
41596;BME280;27283;52.504;13.358;2023-04-06T07:10:56;101788.94;;;11.51;40.40
41596;BME280;27283;52.504;13.358;2023-04-06T07:13:28;101784.53;;;11.50;40.62
41596;BME280;27283;52.504;13.358;2023-04-06T07:16:18;101786.47;;;11.67;39.53
41596;BME280;27283;52.504;13.358;2023-04-06T07:18:50;101790.75;;;11.98;39.21
41596;BME280;27283;52.504;13.358;2023-04-06T07:21:23;101786.31;;;12.07;38.27
41596;BME280;27283;52.504;13.358;2023-04-06T07:23:56;101786.66;;;11.94;38.26
41596;BME280;27283;52.504;13.358;2023-04-06T07:26:28;101789.44;;;12.48;37.22
41596;BME280;27283;52.504;13.358;2023-04-06T08:53:42;101769.72;;;15.94;27.59
41596;BME280;27283;52.504;13.358;2023-04-06T08:56:31;101776.88;;;16.26;26.99
41596;BME280;27283;52.504;13.358;2023-04-06T08:59:08;101773.09;;;16.36;27.16
41596;BME280;27283;52.504;13.358;2023-04-06T09:01:43;101779.91;;;16.78;28.04
41596;BME280;27283;52.504;13.358;2023-04-06T09:04:20;101780.03;;;16.38;27.41
41596;BME280;27283;52.504;13.358;2023-04-06T09:06:56;101776.38;;;15.91;27.03
41596;BME280;27283;52.504;13.358;2023-04-06T09:09:38;101767.28;;;16.16;27.05
41596;BME280;27283;52.504;13.358;2023-04-06T09:12:24;101767.97;;;16.87;24.83
41596;BME280;27283;52.504;13.358;2023-04-06T09:15:04;101772.72;;;17.08;24.03
41596;BME280;27283;52.504;13.358;2023-04-06T09:17:44;101767.78;;;17.27;25.08
41596;BME280;27283;52.504;13.358;2023-04-06T09:20:23;101769.91;;;17.02;25.53
41596;BME280;27283;52.504;13.358;2023-04-06T09:23:05;101762.66;;;16.94;24.89
41596;BME280;27283;52.504;13.358;2023-04-06T09:25:40;101761.56;;;17.03;25.53
41596;BME280;27283;52.504;13.358;2023-04-06T09:28:24;101760.16;;;17.07;24.26
41596;BME280;27283;52.504;13.358;2023-04-06T09:30:56;101760.03;;;17.98;23.94
41596;BME280;27283;52.504;13.358;2023-04-06T09:33:28;101764.94;;;17.05;25.30
41596;BME280;27283;52.504;13.358;2023-04-06T09:36:00;101753.44;;;17.33;23.35
41596;BME280;27283;52.504;13.358;2023-04-06T09:38:33;101751.97;;;17.30;23.95
41596;BME280;27283;52.504;13.358;2023-04-06T09:41:08;101748.28;;;17.23;23.13
41596;BME280;27283;52.504;13.358;2023-04-06T09:43:40;101758.78;;;17.11;24.05
41596;BME280;27283;52.504;13.358;2023-04-06T09:46:12;101745.19;;;17.11;25.00
41596;BME280;27283;52.504;13.358;2023-04-06T09:48:46;101756.97;;;17.04;23.57
41596;BME280;27283;52.504;13.358;2023-04-06T09:51:37;101754.16;;;16.97;23.80
41596;BME280;27283;52.504;13.358;2023-04-06T09:54:11;101751.34;;;17.05;23.64
41596;BME280;27283;52.504;13.358;2023-04-06T09:56:53;101732.16;;;17.07;23.75
41596;BME280;27283;52.504;13.358;2023-04-06T09:59:39;101740.22;;;17.30;23.94
41596;BME280;27283;52.504;13.358;2023-04-06T10:02:20;101736.47;;;16.32;26.15
41596;BME280;27283;52.504;13.358;2023-04-06T10:05:01;101728.97;;;17.18;23.78
41596;BME280;27283;52.504;13.358;2023-04-06T10:07:35;101726.63;;;17.30;22.78
41596;BME280;27283;52.504;13.358;2023-04-06T10:10:27;101732.00;;;17.53;23.32
41596;BME280;27283;52.504;13.358;2023-04-06T10:13:03;101731.50;;;17.79;21.49
41596;BME280;27283;52.504;13.358;2023-04-06T10:15:38;101731.34;;;18.17;20.28
41596;BME280;27283;52.504;13.358;2023-04-06T10:18:10;101743.34;;;18.23;21.04
41596;BME280;27283;52.504;13.358;2023-04-06T10:20:48;101729.53;;;17.58;21.02
41596;BME280;27283;52.504;13.358;2023-04-06T10:23:26;101728.78;;;16.81;21.48
41596;BME280;27283;52.504;13.358;2023-04-06T10:26:02;101726.16;;;17.11;22.21
41596;BME280;27283;52.504;13.358;2023-04-06T10:28:41;101732.63;;;16.95;21.84
41596;BME280;27283;52.504;13.358;2023-04-06T10:31:23;101724.22;;;16.82;23.06
41596;BME280;27283;52.504;13.358;2023-04-06T10:33:56;101718.47;;;17.15;23.38
41596;BME280;27283;52.504;13.358;2023-04-06T10:36:33;101726.09;;;17.20;22.11
41596;BME280;27283;52.504;13.358;2023-04-06T10:39:06;101727.00;;;17.27;23.01
41596;BME280;27283;52.504;13.358;2023-04-06T10:41:42;101728.03;;;16.73;21.87
41596;BME280;27283;52.504;13.358;2023-04-06T10:44:24;101728.09;;;16.64;20.92
41596;BME280;27283;52.504;13.358;2023-04-06T10:46:59;101721.84;;;15.70;22.33
41596;BME280;27283;52.504;13.358;2023-04-06T10:49:32;101718.31;;;14.88;25.30
41596;BME280;27283;52.504;13.358;2023-04-06T10:52:06;101721.63;;;15.88;24.38
41596;BME280;27283;52.504;13.358;2023-04-06T10:54:41;101717.81;;;16.75;22.30
41596;BME280;27283;52.504;13.358;2023-04-06T10:57:28;101717.34;;;15.46;22.42
41596;BME280;27283;52.504;13.358;2023-04-06T11:00:05;101713.56;;;14.58;25.05
41596;BME280;27283;52.504;13.358;2023-04-06T11:02:40;101714.69;;;15.29;23.33
41596;BME280;27283;52.504;13.358;2023-04-06T11:05:12;101704.72;;;16.09;21.93
41596;BME280;27283;52.504;13.358;2023-04-06T11:07:45;101702.53;;;16.04;21.59
41596;BME280;27283;52.504;13.358;2023-04-06T11:10:21;101706.75;;;15.84;22.55
41596;BME280;27283;52.504;13.358;2023-04-06T11:12:54;101708.94;;;15.80;24.62
41596;BME280;27283;52.504;13.358;2023-04-06T11:15:33;101705.28;;;15.65;22.40
41596;BME280;27283;52.504;13.358;2023-04-06T11:18:07;101695.72;;;15.77;23.38
41596;BME280;27283;52.504;13.358;2023-04-06T11:20:40;101703.81;;;15.93;22.29
41596;BME280;27283;52.504;13.358;2023-04-06T11:23:23;101711.69;;;15.72;22.58
41596;BME280;27283;52.504;13.358;2023-04-06T11:25:56;101689.81;;;15.73;23.73
41596;BME280;27283;52.504;13.358;2023-04-06T11:28:30;101702.63;;;15.88;23.27
41596;BME280;27283;52.504;13.358;2023-04-06T11:31:05;101693.91;;;15.69;23.07
41596;BME280;27283;52.504;13.358;2023-04-06T11:33:38;101688.16;;;16.04;23.06
41596;BME280;27283;52.504;13.358;2023-04-06T11:36:13;101684.47;;;15.97;22.97
41596;BME280;27283;52.504;13.358;2023-04-06T11:38:46;101676.59;;;15.79;22.60
41596;BME280;27283;52.504;13.358;2023-04-06T11:41:23;101681.34;;;16.31;23.91
41596;BME280;27283;52.504;13.358;2023-04-06T11:44:03;101675.97;;;15.60;23.56
41596;BME280;27283;52.504;13.358;2023-04-06T11:46:40;101669.50;;;15.69;22.30
41596;BME280;27283;52.504;13.358;2023-04-06T11:49:16;101674.91;;;15.69;23.20
41596;BME280;27283;52.504;13.358;2023-04-06T11:51:49;101676.50;;;15.55;23.30
41596;BME280;27283;52.504;13.358;2023-04-06T11:54:36;101675.00;;;14.97;23.28
41596;BME280;27283;52.504;13.358;2023-04-06T11:57:12;101671.25;;;15.06;22.85
41596;BME280;27283;52.504;13.358;2023-04-06T11:59:46;101661.16;;;14.67;23.97
41596;BME280;27283;52.504;13.358;2023-04-06T12:02:22;101670.72;;;13.95;24.25
41596;BME280;27283;52.504;13.358;2023-04-06T12:04:55;101662.75;;;13.35;25.60
41596;BME280;27283;52.504;13.358;2023-04-06T12:07:28;101662.66;;;13.18;25.26
41596;BME280;27283;52.504;13.358;2023-04-06T12:10:02;101661.22;;;13.06;24.98
41596;BME280;27283;52.504;13.358;2023-04-06T12:12:35;101665.19;;;12.93;26.23
41596;BME280;27283;52.504;13.358;2023-04-06T12:15:08;101670.69;;;12.84;25.51
41596;BME280;27283;52.504;13.358;2023-04-06T12:17:44;101662.81;;;12.64;26.03
41596;BME280;27283;52.504;13.358;2023-04-06T12:20:17;101650.53;;;12.70;26.62
41596;BME280;27283;52.504;13.358;2023-04-06T12:22:55;101655.25;;;12.94;25.07
41596;BME280;27283;52.504;13.358;2023-04-06T12:25:28;101659.78;;;12.23;26.37
41596;BME280;27283;52.504;13.358;2023-04-06T12:28:00;101648.66;;;12.44;26.06
41596;BME280;27283;52.504;13.358;2023-04-06T12:30:34;101657.06;;;12.23;27.18
41596;BME280;27283;52.504;13.358;2023-04-06T12:33:09;101650.03;;;12.12;27.12
41596;BME280;27283;52.504;13.358;2023-04-06T12:35:42;101648.69;;;12.08;26.55
41596;BME280;27283;52.504;13.358;2023-04-06T12:38:15;101651.06;;;12.11;26.86
41596;BME280;27283;52.504;13.358;2023-04-06T12:40:47;101636.97;;;11.99;26.63
41596;BME280;27283;52.504;13.358;2023-04-06T12:43:20;101642.72;;;12.22;27.07
41596;BME280;27283;52.504;13.358;2023-04-06T12:45:52;101647.13;;;12.05;26.44
41596;BME280;27283;52.504;13.358;2023-04-06T12:48:27;101643.81;;;12.12;26.86
41596;BME280;27283;52.504;13.358;2023-04-06T12:51:02;101628.56;;;12.02;26.96
41596;BME280;27283;52.504;13.358;2023-04-06T12:53:34;101633.75;;;11.86;27.45
41596;BME280;27283;52.504;13.358;2023-04-06T12:56:12;101631.53;;;11.81;28.80
41596;BME280;27283;52.504;13.358;2023-04-06T12:58:49;101638.31;;;11.85;27.67
41596;BME280;27283;52.504;13.358;2023-04-06T13:01:22;101626.81;;;11.83;28.28
41596;BME280;27283;52.504;13.358;2023-04-06T13:03:59;101617.88;;;11.93;27.99
41596;BME280;27283;52.504;13.358;2023-04-06T13:06:32;101622.97;;;11.96;28.03
41596;BME280;27283;52.504;13.358;2023-04-06T13:09:04;101621.06;;;11.78;28.23
41596;BME280;27283;52.504;13.358;2023-04-06T13:11:37;101614.13;;;11.76;28.39
41596;BME280;27283;52.504;13.358;2023-04-06T13:14:10;101615.19;;;11.93;27.85
41596;BME280;27283;52.504;13.358;2023-04-06T13:16:43;101613.69;;;12.16;27.83
41596;BME280;27283;52.504;13.358;2023-04-06T13:19:18;101614.78;;;12.05;28.13
41596;BME280;27283;52.504;13.358;2023-04-06T13:21:53;101609.13;;;11.81;27.87
41596;BME280;27283;52.504;13.358;2023-04-06T13:24:25;101611.22;;;11.87;28.01
41596;BME280;27283;52.504;13.358;2023-04-06T13:26:57;101613.47;;;12.10;27.74
41596;BME280;27283;52.504;13.358;2023-04-06T13:29:30;101598.53;;;11.97;27.47
41596;BME280;27283;52.504;13.358;2023-04-06T13:32:03;101610.84;;;12.00;27.40
41596;BME280;27283;52.504;13.358;2023-04-06T13:34:39;101600.06;;;12.00;27.65
41596;BME280;27283;52.504;13.358;2023-04-06T13:37:14;101614.00;;;11.95;27.60
41596;BME280;27283;52.504;13.358;2023-04-06T13:39:47;101612.66;;;11.81;27.81
41596;BME280;27283;52.504;13.358;2023-04-06T13:42:20;101595.81;;;11.33;28.27
41596;BME280;27283;52.504;13.358;2023-04-06T13:44:52;101594.75;;;11.44;28.38
41596;BME280;27283;52.504;13.358;2023-04-06T13:47:25;101595.19;;;11.40;28.35
41596;BME280;27283;52.504;13.358;2023-04-06T13:50:00;101599.28;;;11.44;28.87
41596;BME280;27283;52.504;13.358;2023-04-06T13:52:32;101586.88;;;11.33;29.17
41596;BME280;27283;52.504;13.358;2023-04-06T13:55:06;101591.66;;;11.39;28.91
41596;BME280;27283;52.504;13.358;2023-04-06T13:57:38;101596.09;;;11.30;28.38
41596;BME280;27283;52.504;13.358;2023-04-06T14:00:12;101587.28;;;11.10;29.35
41596;BME280;27283;52.504;13.358;2023-04-06T14:02:45;101590.22;;;11.17;29.50
41596;BME280;27283;52.504;13.358;2023-04-06T14:05:20;101584.03;;;11.34;29.03
41596;BME280;27283;52.504;13.358;2023-04-06T14:07:53;101589.34;;;11.26;29.64
41596;BME280;27283;52.504;13.358;2023-04-06T14:10:25;101582.34;;;11.33;29.49
41596;BME280;27283;52.504;13.358;2023-04-06T14:12:57;101587.53;;;11.45;28.89
41596;BME280;27283;52.504;13.358;2023-04-06T14:15:33;101585.59;;;11.37;29.24
41596;BME280;27283;52.504;13.358;2023-04-06T14:18:07;101577.50;;;11.09;29.78
41596;BME280;27283;52.504;13.358;2023-04-06T14:20:42;101582.06;;;11.09;30.67
41596;BME280;27283;52.504;13.358;2023-04-06T14:23:15;101582.34;;;11.06;30.78
41596;BME280;27283;52.504;13.358;2023-04-06T14:25:47;101584.44;;;11.12;31.54
41596;BME280;27283;52.504;13.358;2023-04-06T14:28:20;101585.69;;;11.17;31.32
41596;BME280;27283;52.504;13.358;2023-04-06T14:30:53;101578.16;;;11.21;30.66
41596;BME280;27283;52.504;13.358;2023-04-06T14:33:25;101574.81;;;11.37;30.67
41596;BME280;27283;52.504;13.358;2023-04-06T14:36:15;101585.28;;;11.40;30.00
41596;BME280;27283;52.504;13.358;2023-04-06T14:38:49;101579.22;;;11.56;29.90
41596;BME280;27283;52.504;13.358;2023-04-06T14:41:25;101578.75;;;11.43;28.78
41596;BME280;27283;52.504;13.358;2023-04-06T14:43:58;101572.97;;;11.38;29.29
41596;BME280;27283;52.504;13.358;2023-04-06T14:46:31;101575.75;;;11.28;29.98